Huvudsida
METAR-TAF:

METAR-TAF

Flygplatser :

Aten-Elefthérios Venizélos internationella flygplats

Aten, Grekland

latitud: 37-56N, longitud: 023-56E, höjd: 94 m

Aktuellt väderrapport

Denna rapport gjordes för 32 minuter sedan, klockan 01:20 UTC
Vind 11 kt från nord
Temperatur 28°C
Fuktighet 37%
Tryck 1010 hPa
Sikt 10 km eller mer
Inga moln under 1 500 m eller inga cumulonimbus

METAR: LGAV 190120Z 01011KT CAVOK 28/12 Q1010 NOSIG

Tid: 04:52 (01:52 UTC)

Väderprognos

Denna rapport gjordes för 2 timmar och 52 minuter sedan, klockan 23:00 UTC
Prognos gäller från 19 kl. 00 UTC till 19 kl. 24 UTC
Vind 8 kt från nord
Sikt 10 km eller mer
Få moln på en höjd av 3000 ft
Blir
från 19 kl. 00 UTC till 19 kl. 02 UTC
Vind 18 kt från nord
Blir
från 19 kl. 06 UTC till 19 kl. 08 UTC
Vind 18 kt från nord i byarna ända upp till 28 kt

TAF: LGAV 182300Z 1900/1924 35008KT 9999 FEW030 BECMG 1900/1902 35018KT BECMG 1906/1908 36018G28KT

Aktuella väderrapporter och prognoser från 4000 flygplatser (METAR- och TAF-rapporter).

De tillgängliga stationerna syns som gula och röda prickar på kartan.

För musen över prickarna för att se namnen på stationerna.

Klicka sedan för att få väderrapporter och prognoser.

För att ändra kartan: Klicka på de gröna knapparna med ett svart kors på för att zooma in; den gröna knappen med ett streck på för att zooma ut; eller på de gröna pilarna för angränsande kartor.


METAR-TAF: